sensor_id;sensor_type;location;lat;lon;timestamp;P1;durP1;ratioP1;P2;durP2;ratioP2
62056;SDS011;48016;50.284;18.860;2022-10-20T00:00:51;23.70;;;13.70;;
62056;SDS011;48016;50.284;18.860;2022-10-20T00:03:30;23.30;;;13.80;;
62056;SDS011;48016;50.284;18.860;2022-10-20T00:06:07;24.40;;;13.60;;
62056;SDS011;48016;50.284;18.860;2022-10-20T00:08:39;26.40;;;13.80;;
62056;SDS011;48016;50.284;18.860;2022-10-20T00:11:08;27.20;;;13.90;;
62056;SDS011;48016;50.284;18.860;2022-10-20T00:13:37;22.60;;;13.70;;
62056;SDS011;48016;50.284;18.860;2022-10-20T00:16:04;22.10;;;12.30;;
62056;SDS011;48016;50.284;18.860;2022-10-20T00:18:31;24.80;;;13.30;;
62056;SDS011;48016;50.284;18.860;2022-10-20T00:20:57;22.20;;;13.80;;
62056;SDS011;48016;50.284;18.860;2022-10-20T00:23:24;23.00;;;14.10;;
62056;SDS011;48016;50.284;18.860;2022-10-20T00:26:04;22.20;;;13.50;;
62056;SDS011;48016;50.284;18.860;2022-10-20T00:28:32;23.80;;;13.50;;
62056;SDS011;48016;50.284;18.860;2022-10-20T00:30:59;22.10;;;12.60;;
62056;SDS011;48016;50.284;18.860;2022-10-20T00:33:25;22.70;;;13.70;;
62056;SDS011;48016;50.284;18.860;2022-10-20T00:35:52;25.30;;;13.00;;
62056;SDS011;48016;50.284;18.860;2022-10-20T00:38:18;19.00;;;12.80;;
62056;SDS011;48016;50.284;18.860;2022-10-20T00:40:45;22.30;;;12.20;;
62056;SDS011;48016;50.284;18.860;2022-10-20T00:43:12;22.90;;;12.10;;
62056;SDS011;48016;50.284;18.860;2022-10-20T00:45:40;19.50;;;11.50;;
62056;SDS011;48016;50.284;18.860;2022-10-20T00:48:13;22.20;;;13.60;;
62056;SDS011;48016;50.284;18.860;2022-10-20T00:50:44;23.70;;;11.30;;
62056;SDS011;48016;50.284;18.860;2022-10-20T00:53:17;22.10;;;13.40;;
62056;SDS011;48016;50.284;18.860;2022-10-20T00:55:45;23.50;;;13.00;;
62056;SDS011;48016;50.284;18.860;2022-10-20T00:58:14;22.30;;;12.50;;
62056;SDS011;48016;50.284;18.860;2022-10-20T01:00:41;22.40;;;13.00;;
62056;SDS011;48016;50.284;18.860;2022-10-20T01:03:17;21.90;;;12.90;;
62056;SDS011;48016;50.284;18.860;2022-10-20T01:05:48;20.90;;;12.10;;
62056;SDS011;48016;50.284;18.860;2022-10-20T01:08:15;23.10;;;12.80;;
62056;SDS011;48016;50.284;18.860;2022-10-20T01:11:25;22.70;;;12.70;;
62056;SDS011;48016;50.284;18.860;2022-10-20T01:13:54;24.30;;;13.50;;
62056;SDS011;48016;50.284;18.860;2022-10-20T01:16:28;24.60;;;12.80;;
62056;SDS011;48016;50.284;18.860;2022-10-20T01:27:47;23.10;;;12.80;;
62056;SDS011;48016;50.284;18.860;2022-10-20T01:30:19;25.10;;;14.20;;
62056;SDS011;48016;50.284;18.860;2022-10-20T01:35:48;25.20;;;14.70;;
62056;SDS011;48016;50.284;18.860;2022-10-20T01:38:27;27.20;;;15.40;;
62056;SDS011;48016;50.284;18.860;2022-10-20T01:43:46;26.60;;;15.70;;
62056;SDS011;48016;50.284;18.860;2022-10-20T01:46:15;25.50;;;14.90;;
62056;SDS011;48016;50.284;18.860;2022-10-20T01:48:45;23.50;;;14.90;;
62056;SDS011;48016;50.284;18.860;2022-10-20T01:51:12;24.90;;;16.40;;
62056;SDS011;48016;50.284;18.860;2022-10-20T01:53:39;28.80;;;16.70;;
62056;SDS011;48016;50.284;18.860;2022-10-20T01:56:05;26.60;;;16.50;;
62056;SDS011;48016;50.284;18.860;2022-10-20T02:04:04;29.70;;;17.30;;
62056;SDS011;48016;50.284;18.860;2022-10-20T02:09:13;30.00;;;17.50;;
62056;SDS011;48016;50.284;18.860;2022-10-20T02:11:57;27.80;;;16.80;;
62056;SDS011;48016;50.284;18.860;2022-10-20T02:14:25;27.80;;;18.00;;
62056;SDS011;48016;50.284;18.860;2022-10-20T02:16:59;26.70;;;19.10;;
62056;SDS011;48016;50.284;18.860;2022-10-20T02:19:34;29.30;;;18.60;;
62056;SDS011;48016;50.284;18.860;2022-10-20T02:22:03;29.90;;;20.10;;
62056;SDS011;48016;50.284;18.860;2022-10-20T02:24:33;29.90;;;18.90;;
62056;SDS011;48016;50.284;18.860;2022-10-20T02:27:04;30.70;;;20.60;;
62056;SDS011;48016;50.284;18.860;2022-10-20T02:29:37;32.60;;;21.30;;
62056;SDS011;48016;50.284;18.860;2022-10-20T02:32:06;37.30;;;23.20;;
62056;SDS011;48016;50.284;18.860;2022-10-20T02:34:36;38.50;;;23.30;;
62056;SDS011;48016;50.284;18.860;2022-10-20T02:37:02;33.60;;;22.80;;
62056;SDS011;48016;50.284;18.860;2022-10-20T02:39:29;37.60;;;23.30;;
62056;SDS011;48016;50.284;18.860;2022-10-20T02:41:55;33.40;;;21.90;;
62056;SDS011;48016;50.284;18.860;2022-10-20T02:44:22;41.20;;;26.10;;
62056;SDS011;48016;50.284;18.860;2022-10-20T02:46:48;37.90;;;25.60;;
62056;SDS011;48016;50.284;18.860;2022-10-20T02:49:15;37.00;;;24.80;;
62056;SDS011;48016;50.284;18.860;2022-10-20T02:51:41;39.30;;;25.40;;
62056;SDS011;48016;50.284;18.860;2022-10-20T02:54:08;34.00;;;23.30;;
62056;SDS011;48016;50.284;18.860;2022-10-20T02:56:34;32.30;;;22.60;;
62056;SDS011;48016;50.284;18.860;2022-10-20T02:59:01;37.50;;;24.90;;
62056;SDS011;48016;50.284;18.860;2022-10-20T03:01:27;34.10;;;23.80;;
62056;SDS011;48016;50.284;18.860;2022-10-20T03:03:54;32.90;;;21.60;;
62056;SDS011;48016;50.284;18.860;2022-10-20T03:06:24;41.70;;;30.40;;
62056;SDS011;48016;50.284;18.860;2022-10-20T03:08:51;39.10;;;23.90;;
62056;SDS011;48016;50.284;18.860;2022-10-20T03:11:18;32.10;;;22.10;;
62056;SDS011;48016;50.284;18.860;2022-10-20T03:13:44;34.20;;;22.30;;
62056;SDS011;48016;50.284;18.860;2022-10-20T03:16:11;32.00;;;22.00;;
62056;SDS011;48016;50.284;18.860;2022-10-20T03:18:37;32.10;;;22.10;;
62056;SDS011;48016;50.284;18.860;2022-10-20T03:21:04;32.10;;;22.30;;
62056;SDS011;48016;50.284;18.860;2022-10-20T03:23:30;30.70;;;20.60;;
62056;SDS011;48016;50.284;18.860;2022-10-20T03:26:03;34.90;;;22.10;;
62056;SDS011;48016;50.284;18.860;2022-10-20T03:28:31;32.50;;;22.30;;
62056;SDS011;48016;50.284;18.860;2022-10-20T03:30:57;34.10;;;23.50;;
62056;SDS011;48016;50.284;18.860;2022-10-20T03:33:24;33.40;;;23.20;;
62056;SDS011;48016;50.284;18.860;2022-10-20T03:35:52;31.60;;;22.70;;
62056;SDS011;48016;50.284;18.860;2022-10-20T03:38:18;32.40;;;23.30;;
62056;SDS011;48016;50.284;18.860;2022-10-20T03:40:45;40.00;;;25.10;;
62056;SDS011;48016;50.284;18.860;2022-10-20T03:43:11;38.00;;;26.30;;
62056;SDS011;48016;50.284;18.860;2022-10-20T03:45:40;38.00;;;26.00;;
62056;SDS011;48016;50.284;18.860;2022-10-20T03:48:08;39.40;;;27.00;;
62056;SDS011;48016;50.284;18.860;2022-10-20T03:50:36;36.80;;;26.10;;
62056;SDS011;48016;50.284;18.860;2022-10-20T03:53:04;40.50;;;26.20;;
62056;SDS011;48016;50.284;18.860;2022-10-20T03:55:31;36.50;;;25.10;;
62056;SDS011;48016;50.284;18.860;2022-10-20T03:57:57;37.60;;;24.80;;
62056;SDS011;48016;50.284;18.860;2022-10-20T04:00:24;35.80;;;25.20;;
62056;SDS011;48016;50.284;18.860;2022-10-20T04:02:50;36.60;;;22.60;;
62056;SDS011;48016;50.284;18.860;2022-10-20T04:05:18;35.40;;;24.10;;
62056;SDS011;48016;50.284;18.860;2022-10-20T04:07:45;34.00;;;24.00;;
62056;SDS011;48016;50.284;18.860;2022-10-20T04:10:13;38.80;;;25.20;;
62056;SDS011;48016;50.284;18.860;2022-10-20T04:12:41;42.40;;;27.00;;
62056;SDS011;48016;50.284;18.860;2022-10-20T04:15:07;39.60;;;24.40;;
62056;SDS011;48016;50.284;18.860;2022-10-20T04:17:34;34.30;;;22.70;;
62056;SDS011;48016;50.284;18.860;2022-10-20T04:20:02;36.70;;;24.30;;
62056;SDS011;48016;50.284;18.860;2022-10-20T04:22:30;37.60;;;22.40;;
62056;SDS011;48016;50.284;18.860;2022-10-20T04:24:57;37.70;;;24.50;;
62056;SDS011;48016;50.284;18.860;2022-10-20T04:27:23;33.40;;;22.20;;
62056;SDS011;48016;50.284;18.860;2022-10-20T04:29:50;37.80;;;23.00;;
62056;SDS011;48016;50.284;18.860;2022-10-20T04:32:16;36.40;;;24.80;;
62056;SDS011;48016;50.284;18.860;2022-10-20T04:34:43;37.40;;;23.80;;
62056;SDS011;48016;50.284;18.860;2022-10-20T04:37:09;38.90;;;23.90;;
62056;SDS011;48016;50.284;18.860;2022-10-20T04:39:36;40.00;;;24.50;;
62056;SDS011;48016;50.284;18.860;2022-10-20T04:42:02;38.70;;;23.90;;
62056;SDS011;48016;50.284;18.860;2022-10-20T04:44:29;37.90;;;23.80;;
62056;SDS011;48016;50.284;18.860;2022-10-20T04:46:55;44.50;;;24.60;;
62056;SDS011;48016;50.284;18.860;2022-10-20T04:49:22;44.60;;;25.80;;
62056;SDS011;48016;50.284;18.860;2022-10-20T04:51:48;46.00;;;24.90;;
62056;SDS011;48016;50.284;18.860;2022-10-20T04:54:15;39.90;;;23.60;;
62056;SDS011;48016;50.284;18.860;2022-10-20T04:56:41;37.30;;;23.70;;
62056;SDS011;48016;50.284;18.860;2022-10-20T04:59:08;42.40;;;23.30;;
62056;SDS011;48016;50.284;18.860;2022-10-20T05:01:35;39.60;;;22.70;;
62056;SDS011;48016;50.284;18.860;2022-10-20T05:04:01;37.50;;;21.10;;
62056;SDS011;48016;50.284;18.860;2022-10-20T05:06:31;36.60;;;22.70;;
62056;SDS011;48016;50.284;18.860;2022-10-20T05:08:59;37.70;;;21.60;;
62056;SDS011;48016;50.284;18.860;2022-10-20T05:11:28;35.60;;;20.30;;
62056;SDS011;48016;50.284;18.860;2022-10-20T05:13:55;37.70;;;22.80;;
62056;SDS011;48016;50.284;18.860;2022-10-20T05:16:22;32.20;;;19.70;;
62056;SDS011;48016;50.284;18.860;2022-10-20T05:18:49;37.10;;;20.90;;
62056;SDS011;48016;50.284;18.860;2022-10-20T05:21:20;37.30;;;20.90;;
62056;SDS011;48016;50.284;18.860;2022-10-20T05:23:53;34.30;;;21.00;;
62056;SDS011;48016;50.284;18.860;2022-10-20T05:26:25;36.70;;;21.00;;
62056;SDS011;48016;50.284;18.860;2022-10-20T05:28:53;33.50;;;20.80;;
62056;SDS011;48016;50.284;18.860;2022-10-20T05:31:20;41.80;;;22.70;;
62056;SDS011;48016;50.284;18.860;2022-10-20T05:33:49;36.90;;;22.20;;
62056;SDS011;48016;50.284;18.860;2022-10-20T05:36:18;52.70;;;26.50;;
62056;SDS011;48016;50.284;18.860;2022-10-20T05:38:47;56.80;;;27.00;;
62056;SDS011;48016;50.284;18.860;2022-10-20T05:41:16;52.20;;;27.20;;
62056;SDS011;48016;50.284;18.860;2022-10-20T05:43:51;51.20;;;25.50;;
62056;SDS011;48016;50.284;18.860;2022-10-20T05:46:20;49.00;;;26.40;;
62056;SDS011;48016;50.284;18.860;2022-10-20T05:48:46;61.30;;;30.80;;
62056;SDS011;48016;50.284;18.860;2022-10-20T05:51:14;55.30;;;28.70;;
62056;SDS011;48016;50.284;18.860;2022-10-20T05:53:43;57.40;;;28.10;;
62056;SDS011;48016;50.284;18.860;2022-10-20T05:56:11;48.60;;;27.60;;
62056;SDS011;48016;50.284;18.860;2022-10-20T05:58:39;51.10;;;28.50;;
62056;SDS011;48016;50.284;18.860;2022-10-20T06:01:28;50.00;;;26.70;;
62056;SDS011;48016;50.284;18.860;2022-10-20T06:04:04;44.80;;;25.90;;
62056;SDS011;48016;50.284;18.860;2022-10-20T06:06:31;42.30;;;26.80;;
62056;SDS011;48016;50.284;18.860;2022-10-20T06:08:58;46.30;;;26.70;;
62056;SDS011;48016;50.284;18.860;2022-10-20T06:13:52;42.70;;;26.00;;
62056;SDS011;48016;50.284;18.860;2022-10-20T06:16:19;38.00;;;22.20;;
62056;SDS011;48016;50.284;18.860;2022-10-20T06:18:47;39.70;;;22.50;;
62056;SDS011;48016;50.284;18.860;2022-10-20T06:21:15;30.90;;;18.40;;
62056;SDS011;48016;50.284;18.860;2022-10-20T06:23:46;30.60;;;21.00;;
62056;SDS011;48016;50.284;18.860;2022-10-20T06:26:18;39.70;;;23.80;;
62056;SDS011;48016;50.284;18.860;2022-10-20T06:28:48;35.90;;;22.60;;
62056;SDS011;48016;50.284;18.860;2022-10-20T06:33:46;37.20;;;22.20;;
62056;SDS011;48016;50.284;18.860;2022-10-20T06:36:13;31.20;;;19.10;;
62056;SDS011;48016;50.284;18.860;2022-10-20T06:41:09;34.20;;;19.90;;
62056;SDS011;48016;50.284;18.860;2022-10-20T06:43:37;32.90;;;19.70;;
62056;SDS011;48016;50.284;18.860;2022-10-20T06:46:04;29.70;;;18.10;;
62056;SDS011;48016;50.284;18.860;2022-10-20T06:48:34;33.20;;;18.30;;
62056;SDS011;48016;50.284;18.860;2022-10-20T06:51:02;28.60;;;17.50;;
62056;SDS011;48016;50.284;18.860;2022-10-20T06:53:36;25.70;;;16.00;;
62056;SDS011;48016;50.284;18.860;2022-10-20T06:56:04;27.00;;;15.60;;
62056;SDS011;48016;50.284;18.860;2022-10-20T06:58:37;26.70;;;14.10;;
62056;SDS011;48016;50.284;18.860;2022-10-20T07:01:06;24.30;;;14.20;;
62056;SDS011;48016;50.284;18.860;2022-10-20T07:03:35;25.70;;;14.40;;
62056;SDS011;48016;50.284;18.860;2022-10-20T07:06:02;24.50;;;15.00;;
62056;SDS011;48016;50.284;18.860;2022-10-20T07:08:30;22.10;;;14.10;;
62056;SDS011;48016;50.284;18.860;2022-10-20T07:11:03;24.60;;;14.40;;
62056;SDS011;48016;50.284;18.860;2022-10-20T07:13:32;25.90;;;15.30;;
62056;SDS011;48016;50.284;18.860;2022-10-20T07:16:00;18.70;;;12.50;;
62056;SDS011;48016;50.284;18.860;2022-10-20T07:18:28;15.90;;;11.10;;
62056;SDS011;48016;50.284;18.860;2022-10-20T07:20:55;21.10;;;13.60;;
62056;SDS011;48016;50.284;18.860;2022-10-20T07:23:24;21.10;;;12.50;;
62056;SDS011;48016;50.284;18.860;2022-10-20T07:25:58;19.10;;;11.70;;
62056;SDS011;48016;50.284;18.860;2022-10-20T07:28:30;18.70;;;12.10;;
62056;SDS011;48016;50.284;18.860;2022-10-20T07:31:01;18.30;;;12.70;;
62056;SDS011;48016;50.284;18.860;2022-10-20T07:33:32;15.00;;;10.80;;
62056;SDS011;48016;50.284;18.860;2022-10-20T07:35:59;17.30;;;10.60;;
62056;SDS011;48016;50.284;18.860;2022-10-20T07:38:26;12.70;;;8.10;;
62056;SDS011;48016;50.284;18.860;2022-10-20T07:40:52;13.80;;;9.40;;
62056;SDS011;48016;50.284;18.860;2022-10-20T07:43:26;14.20;;;8.10;;
62056;SDS011;48016;50.284;18.860;2022-10-20T07:45:52;12.40;;;7.50;;
62056;SDS011;48016;50.284;18.860;2022-10-20T07:48:19;13.50;;;8.10;;
62056;SDS011;48016;50.284;18.860;2022-10-20T07:50:45;12.70;;;7.40;;
62056;SDS011;48016;50.284;18.860;2022-10-20T07:53:11;17.30;;;8.70;;
62056;SDS011;48016;50.284;18.860;2022-10-20T07:55:38;16.20;;;9.70;;
62056;SDS011;48016;50.284;18.860;2022-10-20T07:58:05;14.90;;;9.40;;
62056;SDS011;48016;50.284;18.860;2022-10-20T08:00:31;13.10;;;8.70;;
62056;SDS011;48016;50.284;18.860;2022-10-20T08:02:58;14.30;;;9.70;;
62056;SDS011;48016;50.284;18.860;2022-10-20T08:05:24;14.50;;;8.90;;
62056;SDS011;48016;50.284;18.860;2022-10-20T08:07:51;15.70;;;9.90;;
62056;SDS011;48016;50.284;18.860;2022-10-20T08:10:18;15.30;;;9.40;;
62056;SDS011;48016;50.284;18.860;2022-10-20T08:12:44;16.50;;;10.60;;
62056;SDS011;48016;50.284;18.860;2022-10-20T08:15:11;18.30;;;11.80;;
62056;SDS011;48016;50.284;18.860;2022-10-20T08:17:38;19.20;;;13.10;;
62056;SDS011;48016;50.284;18.860;2022-10-20T08:20:04;18.90;;;10.50;;
62056;SDS011;48016;50.284;18.860;2022-10-20T08:22:31;17.90;;;11.00;;
62056;SDS011;48016;50.284;18.860;2022-10-20T08:24:58;17.80;;;10.50;;
62056;SDS011;48016;50.284;18.860;2022-10-20T08:27:24;14.10;;;9.20;;
62056;SDS011;48016;50.284;18.860;2022-10-20T08:29:51;14.50;;;9.10;;
62056;SDS011;48016;50.284;18.860;2022-10-20T08:32:17;14.10;;;8.90;;
62056;SDS011;48016;50.284;18.860;2022-10-20T08:34:44;13.20;;;8.60;;
62056;SDS011;48016;50.284;18.860;2022-10-20T08:37:11;11.80;;;7.70;;
62056;SDS011;48016;50.284;18.860;2022-10-20T08:39:38;14.00;;;8.30;;
62056;SDS011;48016;50.284;18.860;2022-10-20T08:42:04;12.40;;;8.10;;
62056;SDS011;48016;50.284;18.860;2022-10-20T08:44:31;11.50;;;6.90;;
62056;SDS011;48016;50.284;18.860;2022-10-20T08:47:01;13.00;;;7.70;;
62056;SDS011;48016;50.284;18.860;2022-10-20T08:49:31;11.50;;;6.80;;
62056;SDS011;48016;50.284;18.860;2022-10-20T08:52:00;10.10;;;6.30;;
62056;SDS011;48016;50.284;18.860;2022-10-20T08:54:27;9.60;;;5.60;;
62056;SDS011;48016;50.284;18.860;2022-10-20T08:56:53;8.50;;;5.50;;
62056;SDS011;48016;50.284;18.860;2022-10-20T08:59:33;10.40;;;6.10;;
62056;SDS011;48016;50.284;18.860;2022-10-20T09:02:01;8.70;;;5.40;;
62056;SDS011;48016;50.284;18.860;2022-10-20T09:07:41;10.20;;;4.80;;
62056;SDS011;48016;50.284;18.860;2022-10-20T09:10:47;6.00;;;4.10;;
62056;SDS011;48016;50.284;18.860;2022-10-20T09:12:53;5.70;;;2.80;;
62056;SDS011;48016;50.284;18.860;2022-10-20T09:15:20;7.60;;;4.10;;
62056;SDS011;48016;50.284;18.860;2022-10-20T09:17:49;7.60;;;4.40;;
62056;SDS011;48016;50.284;18.860;2022-10-20T09:22:51;7.00;;;4.70;;
62056;SDS011;48016;50.284;18.860;2022-10-20T09:25:19;8.20;;;4.80;;
62056;SDS011;48016;50.284;18.860;2022-10-20T09:27:49;8.50;;;4.20;;
62056;SDS011;48016;50.284;18.860;2022-10-20T09:30:18;8.00;;;4.00;;
62056;SDS011;48016;50.284;18.860;2022-10-20T09:32:48;8.50;;;4.30;;
62056;SDS011;48016;50.284;18.860;2022-10-20T09:35:23;7.20;;;3.70;;
62056;SDS011;48016;50.284;18.860;2022-10-20T09:37:51;8.40;;;4.20;;
62056;SDS011;48016;50.284;18.860;2022-10-20T09:40:24;8.00;;;4.40;;
62056;SDS011;48016;50.284;18.860;2022-10-20T09:42:56;5.60;;;3.90;;
62056;SDS011;48016;50.284;18.860;2022-10-20T09:45:28;6.30;;;3.80;;
62056;SDS011;48016;50.284;18.860;2022-10-20T09:50:47;7.90;;;4.50;;
62056;SDS011;48016;50.284;18.860;2022-10-20T09:53:18;10.60;;;4.90;;
62056;SDS011;48016;50.284;18.860;2022-10-20T09:55:47;8.70;;;4.60;;
62056;SDS011;48016;50.284;18.860;2022-10-20T09:58:20;8.80;;;5.10;;
62056;SDS011;48016;50.284;18.860;2022-10-20T10:03:37;7.90;;;4.00;;
62056;SDS011;48016;50.284;18.860;2022-10-20T10:06:20;7.20;;;3.90;;
62056;SDS011;48016;50.284;18.860;2022-10-20T10:09:02;7.20;;;3.90;;
62056;SDS011;48016;50.284;18.860;2022-10-20T10:11:55;7.60;;;4.20;;
62056;SDS011;48016;50.284;18.860;2022-10-20T10:14:24;7.90;;;4.00;;
62056;SDS011;48016;50.284;18.860;2022-10-20T10:16:51;9.20;;;4.10;;
62056;SDS011;48016;50.284;18.860;2022-10-20T10:19:19;7.90;;;4.10;;
62056;SDS011;48016;50.284;18.860;2022-10-20T10:21:54;6.40;;;3.30;;
62056;SDS011;48016;50.284;18.860;2022-10-20T10:24:37;9.20;;;4.20;;
62056;SDS011;48016;50.284;18.860;2022-10-20T10:27:17;7.20;;;3.80;;
62056;SDS011;48016;50.284;18.860;2022-10-20T10:29:45;7.90;;;4.10;;
62056;SDS011;48016;50.284;18.860;2022-10-20T10:37:28;8.60;;;4.50;;
62056;SDS011;48016;50.284;18.860;2022-10-20T10:39:56;9.80;;;5.20;;
62056;SDS011;48016;50.284;18.860;2022-10-20T10:56:45;7.70;;;4.60;;
62056;SDS011;48016;50.284;18.860;2022-10-20T10:59:27;7.10;;;4.50;;
62056;SDS011;48016;50.284;18.860;2022-10-20T11:07:49;7.80;;;4.70;;
62056;SDS011;48016;50.284;18.860;2022-10-20T11:13:51;11.00;;;5.60;;
62056;SDS011;48016;50.284;18.860;2022-10-20T11:16:23;7.70;;;4.60;;
62056;SDS011;48016;50.284;18.860;2022-10-20T11:21:44;6.20;;;3.00;;
62056;SDS011;48016;50.284;18.860;2022-10-20T11:26:47;7.40;;;3.30;;
62056;SDS011;48016;50.284;18.860;2022-10-20T11:29:26;8.80;;;3.70;;
62056;SDS011;48016;50.284;18.860;2022-10-20T11:34:39;8.10;;;4.30;;
62056;SDS011;48016;50.284;18.860;2022-10-20T11:45:25;9.10;;;4.60;;
62056;SDS011;48016;50.284;18.860;2022-10-20T11:48:03;10.00;;;4.00;;
62056;SDS011;48016;50.284;18.860;2022-10-20T11:50:32;5.90;;;3.40;;
62056;SDS011;48016;50.284;18.860;2022-10-20T11:54:01;7.90;;;4.40;;
62056;SDS011;48016;50.284;18.860;2022-10-20T11:56:07;8.90;;;4.30;;
62056;SDS011;48016;50.284;18.860;2022-10-20T12:04:54;6.50;;;3.70;;
62056;SDS011;48016;50.284;18.860;2022-10-20T12:07:58;8.00;;;3.70;;
62056;SDS011;48016;50.284;18.860;2022-10-20T12:15:56;8.00;;;3.80;;
62056;SDS011;48016;50.284;18.860;2022-10-20T12:18:26;5.30;;;2.50;;
62056;SDS011;48016;50.284;18.860;2022-10-20T12:21:08;5.60;;;2.20;;
62056;SDS011;48016;50.284;18.860;2022-10-20T12:29:00;4.30;;;1.60;;
62056;SDS011;48016;50.284;18.860;2022-10-20T12:34:55;5.20;;;2.10;;
62056;SDS011;48016;50.284;18.860;2022-10-20T12:37:55;5.10;;;1.80;;
62056;SDS011;48016;50.284;18.860;2022-10-20T12:42:56;8.20;;;2.30;;
62056;SDS011;48016;50.284;18.860;2022-10-20T12:45:33;2.60;;;1.40;;
62056;SDS011;48016;50.284;18.860;2022-10-20T12:48:04;4.70;;;1.50;;
62056;SDS011;48016;50.284;18.860;2022-10-20T12:50:37;5.00;;;1.60;;
62056;SDS011;48016;50.284;18.860;2022-10-20T12:55:57;11.30;;;3.10;;
62056;SDS011;48016;50.284;18.860;2022-10-20T12:58:27;6.20;;;1.90;;
62056;SDS011;48016;50.284;18.860;2022-10-20T13:11:43;5.60;;;1.70;;
62056;SDS011;48016;50.284;18.860;2022-10-20T13:16:57;7.70;;;2.50;;
62056;SDS011;48016;50.284;18.860;2022-10-20T13:19:32;5.50;;;1.70;;
62056;SDS011;48016;50.284;18.860;2022-10-20T13:24:52;3.80;;;1.70;;
62056;SDS011;48016;50.284;18.860;2022-10-20T13:27:19;3.50;;;1.50;;
62056;SDS011;48016;50.284;18.860;2022-10-20T13:29:48;4.90;;;2.10;;
62056;SDS011;48016;50.284;18.860;2022-10-20T13:34:55;7.20;;;1.50;;
62056;SDS011;48016;50.284;18.860;2022-10-20T13:37:39;4.30;;;1.40;;
62056;SDS011;48016;50.284;18.860;2022-10-20T13:45:52;3.20;;;1.40;;
62056;SDS011;48016;50.284;18.860;2022-10-20T13:51:20;5.20;;;2.00;;
62056;SDS011;48016;50.284;18.860;2022-10-20T13:53:52;14.10;;;3.00;;
62056;SDS011;48016;50.284;18.860;2022-10-20T13:56:29;5.40;;;2.20;;
62056;SDS011;48016;50.284;18.860;2022-10-20T13:59:00;4.00;;;1.70;;
62056;SDS011;48016;50.284;18.860;2022-10-20T14:01:30;8.00;;;2.40;;
62056;SDS011;48016;50.284;18.860;2022-10-20T14:03:58;3.80;;;1.70;;
62056;SDS011;48016;50.284;18.860;2022-10-20T14:06:32;3.40;;;1.70;;
62056;SDS011;48016;50.284;18.860;2022-10-20T14:09:17;4.10;;;1.40;;
62056;SDS011;48016;50.284;18.860;2022-10-20T14:11:45;5.30;;;1.90;;
62056;SDS011;48016;50.284;18.860;2022-10-20T14:14:16;4.00;;;1.50;;
62056;SDS011;48016;50.284;18.860;2022-10-20T14:16:46;4.70;;;1.70;;
62056;SDS011;48016;50.284;18.860;2022-10-20T14:19:19;3.60;;;1.60;;
62056;SDS011;48016;50.284;18.860;2022-10-20T14:21:48;4.00;;;2.00;;
62056;SDS011;48016;50.284;18.860;2022-10-20T14:24:43;3.80;;;1.60;;
62056;SDS011;48016;50.284;18.860;2022-10-20T14:27:19;7.90;;;2.40;;
62056;SDS011;48016;50.284;18.860;2022-10-20T14:29:57;3.90;;;1.70;;
62056;SDS011;48016;50.284;18.860;2022-10-20T14:32:29;7.30;;;2.20;;
62056;SDS011;48016;50.284;18.860;2022-10-20T14:34:58;6.10;;;2.50;;
62056;SDS011;48016;50.284;18.860;2022-10-20T14:37:31;4.70;;;2.00;;
62056;SDS011;48016;50.284;18.860;2022-10-20T14:40:04;4.60;;;2.40;;
62056;SDS011;48016;50.284;18.860;2022-10-20T14:42:55;5.00;;;2.50;;
62056;SDS011;48016;50.284;18.860;2022-10-20T14:45:24;6.30;;;2.20;;
62056;SDS011;48016;50.284;18.860;2022-10-20T14:47:52;8.00;;;3.40;;
62056;SDS011;48016;50.284;18.860;2022-10-20T14:50:34;7.60;;;3.10;;
62056;SDS011;48016;50.284;18.860;2022-10-20T14:53:15;5.30;;;2.20;;
62056;SDS011;48016;50.284;18.860;2022-10-20T14:55:50;6.20;;;2.40;;
62056;SDS011;48016;50.284;18.860;2022-10-20T15:01:24;6.00;;;2.40;;
62056;SDS011;48016;50.284;18.860;2022-10-20T15:06:36;5.40;;;2.80;;
62056;SDS011;48016;50.284;18.860;2022-10-20T15:09:02;12.30;;;3.40;;
62056;SDS011;48016;50.284;18.860;2022-10-20T15:11:29;7.90;;;3.20;;
62056;SDS011;48016;50.284;18.860;2022-10-20T15:13:58;6.30;;;3.10;;
62056;SDS011;48016;50.284;18.860;2022-10-20T15:16:42;9.70;;;3.60;;
62056;SDS011;48016;50.284;18.860;2022-10-20T15:21:57;6.60;;;3.50;;
62056;SDS011;48016;50.284;18.860;2022-10-20T15:24:33;8.10;;;4.00;;
62056;SDS011;48016;50.284;18.860;2022-10-20T15:27:00;9.60;;;4.10;;
62056;SDS011;48016;50.284;18.860;2022-10-20T15:29:28;7.70;;;3.90;;
62056;SDS011;48016;50.284;18.860;2022-10-20T15:31:55;8.40;;;4.00;;
62056;SDS011;48016;50.284;18.860;2022-10-20T15:34:22;7.50;;;3.50;;
62056;SDS011;48016;50.284;18.860;2022-10-20T15:36:48;8.00;;;3.10;;
62056;SDS011;48016;50.284;18.860;2022-10-20T15:39:15;6.00;;;3.10;;
62056;SDS011;48016;50.284;18.860;2022-10-20T15:41:41;8.00;;;3.30;;
62056;SDS011;48016;50.284;18.860;2022-10-20T15:46:34;12.90;;;3.40;;
62056;SDS011;48016;50.284;18.860;2022-10-20T15:49:01;7.00;;;3.50;;
62056;SDS011;48016;50.284;18.860;2022-10-20T15:51:28;8.00;;;3.30;;
62056;SDS011;48016;50.284;18.860;2022-10-20T15:53:56;8.80;;;3.80;;
62056;SDS011;48016;50.284;18.860;2022-10-20T15:56:23;8.20;;;3.60;;
62056;SDS011;48016;50.284;18.860;2022-10-20T15:58:50;9.20;;;4.10;;
62056;SDS011;48016;50.284;18.860;2022-10-20T16:01:17;7.30;;;3.40;;
62056;SDS011;48016;50.284;18.860;2022-10-20T16:06:12;9.60;;;4.20;;
62056;SDS011;48016;50.284;18.860;2022-10-20T16:08:40;10.70;;;4.50;;
62056;SDS011;48016;50.284;18.860;2022-10-20T16:11:11;7.90;;;3.70;;
62056;SDS011;48016;50.284;18.860;2022-10-20T16:13:39;11.30;;;5.00;;
62056;SDS011;48016;50.284;18.860;2022-10-20T16:16:06;12.30;;;5.20;;
62056;SDS011;48016;50.284;18.860;2022-10-20T16:18:36;13.00;;;5.40;;
62056;SDS011;48016;50.284;18.860;2022-10-20T16:21:04;8.40;;;5.20;;
62056;SDS011;48016;50.284;18.860;2022-10-20T16:23:33;8.70;;;5.00;;
62056;SDS011;48016;50.284;18.860;2022-10-20T16:26:09;11.00;;;5.00;;
62056;SDS011;48016;50.284;18.860;2022-10-20T16:28:37;8.50;;;4.30;;
62056;SDS011;48016;50.284;18.860;2022-10-20T16:31:04;7.90;;;4.30;;
62056;SDS011;48016;50.284;18.860;2022-10-20T16:33:33;7.90;;;4.90;;
62056;SDS011;48016;50.284;18.860;2022-10-20T16:36:01;8.80;;;4.80;;
62056;SDS011;48016;50.284;18.860;2022-10-20T16:38:32;9.10;;;5.50;;
62056;SDS011;48016;50.284;18.860;2022-10-20T16:40:59;11.50;;;6.00;;
62056;SDS011;48016;50.284;18.860;2022-10-20T16:43:28;10.90;;;6.00;;
62056;SDS011;48016;50.284;18.860;2022-10-20T16:45:54;10.00;;;5.40;;
62056;SDS011;48016;50.284;18.860;2022-10-20T16:48:22;12.40;;;6.90;;
62056;SDS011;48016;50.284;18.860;2022-10-20T16:50:49;11.60;;;6.80;;
62056;SDS011;48016;50.284;18.860;2022-10-20T16:53:15;11.10;;;7.30;;
62056;SDS011;48016;50.284;18.860;2022-10-20T16:55:52;14.40;;;8.20;;
62056;SDS011;48016;50.284;18.860;2022-10-20T16:58:20;16.80;;;8.70;;
62056;SDS011;48016;50.284;18.860;2022-10-20T17:03:31;15.80;;;8.40;;
62056;SDS011;48016;50.284;18.860;2022-10-20T17:06:02;14.00;;;8.10;;
62056;SDS011;48016;50.284;18.860;2022-10-20T17:08:31;15.90;;;9.20;;
62056;SDS011;48016;50.284;18.860;2022-10-20T17:10:59;12.40;;;7.30;;